Paganini — V2CL8 — position and weather

sailwx.info

Track history (hours):
 
Tides and Currents Weather Stations Pressure Air Temp Water Temp Dewpoint Dewpoint Depression Visibility Wind Speed Wind Dir Waves Ship Positions

Paganini

Last reported at 2014-Sep-17 06:24 UTC. Time now 2014-Sep-17 07:34 UTC.
Position N 35°56' W 005°15'.

Length 90 m; draft 6.2 m.

Type: Ship. MMSI: 305040000.

Date/timePositionNaut miles runAvg speedWind from/ knotsBaromVisibWave heightAir tempDewpointWater temp
2014-Sep-17 06:24N 35°56' W 005°15'3 3.6
2014-Sep-17 05:32N 35°54' W 005°18'0 0.0
2014-Sep-17 04:32N 35°54' W 005°18'0 0.0
2014-Sep-17 03:33N 35°54' W 005°18'3 3.1
2014-Sep-17 02:33N 35°56' W 005°21'  
2014-Sep-13 06:16N 44°17' W 007°32'14 7.9
2014-Sep-13 04:31N 44°22' W 007°15'7 7.6
2014-Sep-13 03:33N 44°25' W 007°05'42 8.2
2014-Sep-12 22:26N 44°43' W 006°11'195 8.5
2014-Sep-11 23:34N 46°03' W 001°59'9 9.0
2014-Sep-11 22:33N 46°07' W 001°47'10 9.6
2014-Sep-11 21:33N 46°07' W 001°33'9 0.2
2014-Sep-10 07:31N 46°06' W 001°20'8 7.8
2014-Sep-10 06:30N 46°07' W 001°32'20 8.4
2014-Sep-10 04:08N 46°02' W 001°60'25 9.4
2014-Sep-10 01:27N 45°50' W 002°31'910.2
2014-Sep-10 00:34N 45°46' W 002°43'10 9.6
2014-Sep-09 23:33N 45°42' W 002°55'9 9.5
2014-Sep-09 22:33N 45°37' W 003°07'32 9.5
2014-Sep-09 19:09N 45°22' W 003°48'7 9.8
2014-Sep-09 18:25N 45°19' W 003°58'  
Track history (hours):
 
Tides and Currents Weather Stations Pressure Air Temp Water Temp Dewpoint Dewpoint Depression Visibility Wind Speed Wind Dir Waves Ship Positions

Paganini

Last reported at 2014-Sep-17 06:24 UTC. Time now 2014-Sep-17 07:34 UTC.
Position N 35°56' W 005°15'.

Length 90 m; draft 6.2 m.

Type: Ship. MMSI: 305040000.

Date/timePositionNaut miles runAvg speedWind from/ knotsBaromVisibWave heightAir tempDewpointWater temp
2014-Sep-17 06:24N 35°56' W 005°15'3 3.6
2014-Sep-17 05:32N 35°54' W 005°18'0 0.0
2014-Sep-17 04:32N 35°54' W 005°18'0 0.0
2014-Sep-17 03:33N 35°54' W 005°18'3 3.1
2014-Sep-17 02:33N 35°56' W 005°21'  
2014-Sep-13 06:16N 44°17' W 007°32'14 7.9
2014-Sep-13 04:31N 44°22' W 007°15'7 7.6
2014-Sep-13 03:33N 44°25' W 007°05'42 8.2
2014-Sep-12 22:26N 44°43' W 006°11'195 8.5
2014-Sep-11 23:34N 46°03' W 001°59'9 9.0
2014-Sep-11 22:33N 46°07' W 001°47'10 9.6
2014-Sep-11 21:33N 46°07' W 001°33'9 0.2
2014-Sep-10 07:31N 46°06' W 001°20'8 7.8
2014-Sep-10 06:30N 46°07' W 001°32'20 8.4
2014-Sep-10 04:08N 46°02' W 001°60'25 9.4
2014-Sep-10 01:27N 45°50' W 002°31'910.2
2014-Sep-10 00:34N 45°46' W 002°43'10 9.6
2014-Sep-09 23:33N 45°42' W 002°55'9 9.5
2014-Sep-09 22:33N 45°37' W 003°07'32 9.5
2014-Sep-09 19:09N 45°22' W 003°48'7 9.8
2014-Sep-09 18:25N 45°19' W 003°58'  

Dump ship's entire track history